createdAt,value
2022-09-12T06:03:07.749Z,99.70
2022-09-12T06:04:07.759Z,99.91
2022-09-12T06:05:07.718Z,99.70
2022-09-12T06:06:07.708Z,99.99
2022-09-12T06:07:07.691Z,99.80
2022-09-12T06:08:07.675Z,99.99
2022-09-12T06:09:07.691Z,99.99
2022-09-12T06:10:07.647Z,99.99
2022-09-12T06:11:07.631Z,99.99
2022-09-12T06:12:07.651Z,99.99
2022-09-12T06:13:07.602Z,99.99
2022-09-12T06:14:07.593Z,99.99
2022-09-12T06:15:07.577Z,99.99
2022-09-12T06:16:07.565Z,99.96
2022-09-12T06:17:07.575Z,99.99
2022-09-12T06:18:07.539Z,99.99
2022-09-12T06:19:07.529Z,99.99
2022-09-12T06:20:07.508Z,99.99
2022-09-12T06:21:07.500Z,99.99
2022-09-12T06:22:07.505Z,99.99
2022-09-12T06:23:07.468Z,99.99
2022-09-12T06:24:07.455Z,99.99
2022-09-12T06:25:07.449Z,99.99
2022-09-12T06:26:07.424Z,99.99
2022-09-12T06:27:07.455Z,99.99
2022-09-12T06:28:07.403Z,99.99
2022-09-12T06:29:07.385Z,99.99
2022-09-12T06:30:07.371Z,99.99
2022-09-12T06:31:07.445Z,99.99
2022-09-12T06:32:07.343Z,99.99
2022-09-12T06:33:07.390Z,99.99
2022-09-12T06:34:07.328Z,99.99
2022-09-12T06:35:07.309Z,99.99
2022-09-12T06:36:12.076Z,99.99
2022-09-12T06:37:07.290Z,99.99
2022-09-12T06:38:07.262Z,99.99
2022-09-12T06:39:07.257Z,99.99
2022-09-12T06:40:07.270Z,99.99
2022-09-12T06:41:07.223Z,99.99
2022-09-12T06:42:07.208Z,99.99
2022-09-12T06:43:07.189Z,99.99
2022-09-12T06:44:07.211Z,99.99
2022-09-12T06:45:07.165Z,99.99
2022-09-12T06:46:07.191Z,99.99
2022-09-12T06:47:07.155Z,99.99
2022-09-12T06:48:07.126Z,99.99
2022-09-12T06:49:07.137Z,99.99
2022-09-12T06:50:07.380Z,99.99
2022-09-12T06:51:07.086Z,99.99
2022-09-12T06:52:07.073Z,99.99
2022-09-12T06:53:07.060Z,99.99
2022-09-12T06:54:07.045Z,99.99
2022-09-12T06:55:07.039Z,99.99
2022-09-12T06:56:07.146Z,99.99
2022-09-12T06:57:06.999Z,99.99
2022-09-12T06:58:06.995Z,99.99
2022-09-12T06:59:06.976Z,99.99
2022-09-12T07:00:06.964Z,99.99
2022-09-12T07:01:06.980Z,99.99
2022-09-12T07:02:06.990Z,99.99
2022-09-12T07:03:06.920Z,99.99
2022-09-12T07:04:06.922Z,99.99
2022-09-12T07:05:06.892Z,99.99
2022-09-12T07:06:06.908Z,99.99
2022-09-12T07:07:06.924Z,99.99
2022-09-12T07:08:06.855Z,99.99
2022-09-12T07:09:06.837Z,99.99
2022-09-12T07:10:06.989Z,99.99
2022-09-12T07:11:06.811Z,99.99
2022-09-12T07:12:06.934Z,99.99
2022-09-12T07:13:06.785Z,99.99
2022-09-12T07:14:06.778Z,99.99
2022-09-12T07:15:06.764Z,99.99
2022-09-12T07:16:06.745Z,99.99
2022-09-12T07:17:06.958Z,99.99
2022-09-12T07:18:06.721Z,99.99
2022-09-12T07:19:06.704Z,99.99
2022-09-12T07:20:06.699Z,99.99
2022-09-12T07:21:06.676Z,99.99
2022-09-12T07:22:06.665Z,99.99
2022-09-12T07:23:06.709Z,99.99
2022-09-12T07:24:06.660Z,99.99
2022-09-12T07:25:06.628Z,99.99
2022-09-12T07:26:06.616Z,99.99
2022-09-12T07:27:06.622Z,99.99
2022-09-12T07:28:06.616Z,99.99
2022-09-12T07:29:35.438Z,99.99
2022-09-12T07:30:06.586Z,99.99
2022-09-12T07:31:06.604Z,99.99
2022-09-12T07:32:06.532Z,99.99
2022-09-12T07:33:06.517Z,99.84
2022-09-12T07:34:06.646Z,99.53
2022-09-12T07:35:06.499Z,99.43
2022-09-12T07:36:06.483Z,99.43
2022-09-12T07:37:06.491Z,99.18
2022-09-12T07:38:06.453Z,99.13
2022-09-12T07:39:06.449Z,99.18
2022-09-12T07:40:06.513Z,99.02
2022-09-12T07:41:06.412Z,99.43
2022-09-12T07:42:06.402Z,99.53
2022-09-12T07:43:06.384Z,99.99
2022-09-12T07:44:06.375Z,99.99
2022-09-12T07:45:06.391Z,99.74
2022-09-12T07:46:06.380Z,99.99
2022-09-12T07:47:06.359Z,99.99
2022-09-12T07:48:06.322Z,99.99
2022-09-12T07:49:07.530Z,99.99
2022-09-12T07:50:06.302Z,99.79
2022-09-12T07:51:06.285Z,99.49
2022-09-12T07:52:06.284Z,99.79
2022-09-12T07:53:06.254Z,99.99
2022-09-12T07:54:06.239Z,99.99
2022-09-12T07:55:06.239Z,99.69
2022-09-12T07:56:06.221Z,99.99
2022-09-12T07:57:06.202Z,99.53
2022-09-12T07:58:06.217Z,99.99
2022-09-12T07:59:06.240Z,99.99
2022-09-12T08:00:06.166Z,99.69
2022-09-12T08:01:06.202Z,98.88
2022-09-12T08:02:06.226Z,98.97
2022-09-12T08:03:06.146Z,99.13
2022-09-12T08:04:06.117Z,99.64
2022-09-12T08:05:06.127Z,98.93
2022-09-12T08:06:06.097Z,98.63
2022-09-12T08:07:06.076Z,97.51
2022-09-12T08:08:06.075Z,97.31
2022-09-12T08:09:06.057Z,97.77
2022-09-12T08:10:06.035Z,97.56
2022-09-12T08:11:06.074Z,97.47
2022-09-12T08:12:06.013Z,96.91
2022-09-12T08:13:06.004Z,97.02
2022-09-12T08:14:05.993Z,97.02
2022-09-12T08:15:05.978Z,96.26
2022-09-12T08:16:06.057Z,96.26
2022-09-12T08:17:05.975Z,95.75
2022-09-12T08:18:05.955Z,95.70
2022-09-12T08:19:05.924Z,95.65
2022-09-12T08:20:05.908Z,95.65
2022-09-12T08:21:05.923Z,95.75
2022-09-12T08:22:05.918Z,95.45
2022-09-12T08:23:05.877Z,95.75
2022-09-12T08:24:05.884Z,95.25
2022-09-12T08:25:05.848Z,95.86
2022-09-12T08:26:06.462Z,95.50
2022-09-12T08:27:05.951Z,95.25
2022-09-12T08:28:05.811Z,95.25
2022-09-12T08:29:05.801Z,95.61
2022-09-12T08:30:05.786Z,95.91
2022-09-12T08:31:05.869Z,95.91
2022-09-12T08:32:05.953Z,95.30
2022-09-12T08:33:05.749Z,94.49
2022-09-12T08:34:05.767Z,95.10
2022-09-12T08:35:05.728Z,94.79
2022-09-12T08:36:05.710Z,94.79
2022-09-12T08:37:05.713Z,94.24
2022-09-12T08:38:05.724Z,94.14
2022-09-12T08:39:05.687Z,93.63
2022-09-12T08:40:05.717Z,93.54
2022-09-12T08:41:05.653Z,93.13
2022-09-12T08:42:05.692Z,93.13
2022-09-12T08:43:05.659Z,93.54
2022-09-12T08:44:05.609Z,93.84
2022-09-12T08:45:05.599Z,93.43
2022-09-12T08:46:05.630Z,94.65
2022-09-12T08:47:05.617Z,94.45
2022-09-12T08:48:05.569Z,94.35
2022-09-12T08:49:05.551Z,94.75
2022-09-12T08:50:05.541Z,94.85
2022-09-12T08:51:05.543Z,95.46
2022-09-12T08:52:05.556Z,95.01
2022-09-12T08:53:05.518Z,94.20
2022-09-12T08:54:05.490Z,93.49
2022-09-12T08:55:05.481Z,93.90
2022-09-12T08:56:05.483Z,93.95
2022-09-12T08:57:05.590Z,93.65
2022-09-12T08:58:05.440Z,92.74
2022-09-12T08:59:05.444Z,92.74
2022-09-12T09:00:05.429Z,92.94
2022-09-12T09:01:05.454Z,92.54
2022-09-12T09:02:05.517Z,92.80
2022-09-12T09:03:05.398Z,93.00
2022-09-12T09:04:05.369Z,92.90
2022-09-12T09:05:05.358Z,92.60
2022-09-12T09:06:05.344Z,92.69
2022-09-12T09:07:05.337Z,92.49
2022-09-12T09:08:05.322Z,92.29
2022-09-12T09:09:05.308Z,91.69
2022-09-12T09:10:05.313Z,92.29
2022-09-12T09:11:05.329Z,91.94
2022-09-12T09:12:05.319Z,91.64
2022-09-12T09:13:05.319Z,91.54
2022-09-12T09:14:05.625Z,92.35
2022-09-12T09:15:05.250Z,92.25
2022-09-12T09:16:05.324Z,91.44
2022-09-12T09:17:05.222Z,90.89
2022-09-12T09:18:05.202Z,90.99
2022-09-12T09:19:05.223Z,90.59
2022-09-12T09:20:05.183Z,90.73
2022-09-12T09:21:05.174Z,90.39
2022-09-12T09:22:05.155Z,91.09
2022-09-12T09:23:05.192Z,91.19
2022-09-12T09:24:05.198Z,91.39
2022-09-12T09:25:05.132Z,90.69
2022-09-12T09:26:05.129Z,89.78
2022-09-12T09:27:14.320Z,89.88
2022-09-12T09:28:05.086Z,89.78
2022-09-12T09:29:05.094Z,89.88
2022-09-12T09:30:05.093Z,90.19
2022-09-12T09:31:05.130Z,90.04
2022-09-12T09:32:05.045Z,90.08
2022-09-12T09:33:05.033Z,90.04
2022-09-12T09:34:05.045Z,90.24
2022-09-12T09:35:05.010Z,89.64
2022-09-12T09:36:05.015Z,89.64
2022-09-12T09:37:04.987Z,89.13
2022-09-12T09:38:04.970Z,89.43
2022-09-12T09:39:05.009Z,89.39
2022-09-12T09:40:05.025Z,89.09
2022-09-12T09:41:05.040Z,89.09
2022-09-12T09:42:04.927Z,89.29
2022-09-12T09:43:04.934Z,89.59
2022-09-12T09:44:05.029Z,89.19
2022-09-12T09:45:04.938Z,89.29
2022-09-12T09:46:04.956Z,89.65
2022-09-12T09:47:04.875Z,88.79
2022-09-12T09:48:04.856Z,88.54
2022-09-12T09:49:04.860Z,89.70
2022-09-12T09:50:04.854Z,88.79
2022-09-12T09:51:04.829Z,88.45
2022-09-12T09:52:04.814Z,88.54
2022-09-12T09:53:04.805Z,88.45
2022-09-12T09:54:04.793Z,88.65
2022-09-12T09:55:04.781Z,88.14
2022-09-12T09:56:04.797Z,87.34
2022-09-12T09:57:04.946Z,87.43
2022-09-12T09:58:04.799Z,87.63
2022-09-12T09:59:04.784Z,86.93
2022-09-12T10:00:04.722Z,88.24
2022-09-12T10:01:04.788Z,87.84
2022-09-12T10:02:04.798Z,87.74
2022-09-12T10:03:04.865Z,87.63
2022-09-12T10:04:04.679Z,87.74
2022-09-12T10:05:04.668Z,88.04
2022-09-12T10:06:04.651Z,88.00
2022-09-12T10:07:04.657Z,88.00
2022-09-12T10:08:04.653Z,88.00
2022-09-12T10:09:04.663Z,86.89
2022-09-12T10:10:04.612Z,86.69
2022-09-12T10:11:04.602Z,86.49
2022-09-12T10:12:04.609Z,87.40
2022-09-12T10:13:04.605Z,85.88
2022-09-12T10:14:04.572Z,86.89
2022-09-12T10:15:04.577Z,85.78
2022-09-12T10:16:04.594Z,85.94
2022-09-12T10:17:04.534Z,86.44
2022-09-12T10:18:04.522Z,85.84
2022-09-12T10:19:04.557Z,85.94
2022-09-12T10:20:20.929Z,86.04
2022-09-12T10:21:04.491Z,86.75
2022-09-12T10:22:04.490Z,86.15
2022-09-12T10:23:04.479Z,85.54
2022-09-12T10:24:04.504Z,85.34
2022-09-12T10:25:04.473Z,85.34
2022-09-12T10:26:04.438Z,85.64
2022-09-12T10:27:04.426Z,85.30
2022-09-12T10:28:04.413Z,85.80
2022-09-12T10:29:04.419Z,85.84
2022-09-12T10:30:04.417Z,85.70
2022-09-12T10:31:04.442Z,85.10
2022-09-12T10:32:04.371Z,85.70
2022-09-12T10:33:04.359Z,86.26
2022-09-12T10:34:04.355Z,84.95
2022-09-12T10:35:04.541Z,84.25
2022-09-12T10:36:04.338Z,84.85
2022-09-12T10:37:04.318Z,84.65
2022-09-12T10:38:04.318Z,85.16
2022-09-12T10:39:04.311Z,84.05
2022-09-12T10:40:04.329Z,82.54
2022-09-12T10:41:04.279Z,82.64
2022-09-12T10:42:04.278Z,82.54
2022-09-12T10:43:04.255Z,81.23
2022-09-12T10:44:04.244Z,79.82
2022-09-12T10:45:04.266Z,81.53
2022-09-12T10:46:04.264Z,81.84
2022-09-12T10:47:04.223Z,81.43
2022-09-12T10:48:07.506Z,81.23
2022-09-12T10:49:04.188Z,78.61
2022-09-12T10:50:04.191Z,79.68
2022-09-12T10:51:04.177Z,79.28
2022-09-12T10:52:04.160Z,80.29
2022-09-12T10:53:04.217Z,80.49
2022-09-12T10:54:04.133Z,79.28
2022-09-12T10:55:04.126Z,78.27
2022-09-12T10:56:04.128Z,77.13
2022-09-12T10:57:04.109Z,77.33
2022-09-12T10:58:04.132Z,77.13
2022-09-12T10:59:04.086Z,76.93
2022-09-12T11:00:04.076Z,77.94
2022-09-12T11:01:04.098Z,77.20
2022-09-12T11:02:04.141Z,76.79
2022-09-12T11:03:04.075Z,78.70
2022-09-12T11:04:04.032Z,78.60
2022-09-12T11:05:04.029Z,79.30
2022-09-12T11:06:04.013Z,78.80
2022-09-12T11:07:04.013Z,78.50
2022-09-12T11:08:04.008Z,79.71
2022-09-12T11:09:03.996Z,76.89
2022-09-12T11:10:04.027Z,76.69
2022-09-12T11:11:03.965Z,76.86
2022-09-12T11:12:03.951Z,76.76
2022-09-12T11:13:03.948Z,76.45
2022-09-12T11:14:03.930Z,77.26
2022-09-12T11:15:03.923Z,77.66
2022-09-12T11:16:03.962Z,78.66
2022-09-12T11:17:03.903Z,79.77
2022-09-12T11:18:03.896Z,75.85
2022-09-12T11:19:03.896Z,76.05
2022-09-12T11:20:03.895Z,76.62
2022-09-12T11:21:03.882Z,76.82
2022-09-12T11:22:03.855Z,76.82
2022-09-12T11:23:03.887Z,76.62
2022-09-12T11:24:03.832Z,75.92
2022-09-12T11:25:03.826Z,77.02
2022-09-12T11:26:03.823Z,76.92
2022-09-12T11:27:03.800Z,76.82
2022-09-12T11:28:03.918Z,75.71
2022-09-12T11:29:03.778Z,76.42
2022-09-12T11:30:03.766Z,76.82
2022-09-12T11:31:03.877Z,75.11
2022-09-12T11:32:03.749Z,74.81
2022-09-12T11:33:03.739Z,71.80
2022-09-12T11:34:03.888Z,72.60
2022-09-12T11:35:03.722Z,70.76
2022-09-12T11:36:03.720Z,71.36
2022-09-12T11:37:07.431Z,72.56
2022-09-12T11:38:03.696Z,72.06
2022-09-12T11:39:03.696Z,73.10
2022-09-12T11:40:03.759Z,71.80
2022-09-12T11:41:03.663Z,70.16
2022-09-12T11:42:03.651Z,71.16
2022-09-12T11:43:03.648Z,72.90
2022-09-12T11:44:03.631Z,72.50
2022-09-12T11:45:03.674Z,72.10
2022-09-12T11:46:03.660Z,69.09
2022-09-12T11:47:03.612Z,70.16
2022-09-12T11:48:03.589Z,72.06
2022-09-12T11:49:03.584Z,72.33
2022-09-12T11:50:03.570Z,73.24
2022-09-12T11:51:03.728Z,72.83
2022-09-12T11:52:03.554Z,73.44
2022-09-12T11:53:03.540Z,73.24
2022-09-12T11:54:03.531Z,71.33
2022-09-12T11:55:03.524Z,71.53
2022-09-12T11:56:03.510Z,69.42
2022-09-12T11:57:03.525Z,70.63
2022-09-12T11:58:03.489Z,70.32
2022-09-12T11:59:03.491Z,70.06
2022-09-12T12:00:03.470Z,68.76
2022-09-12T12:01:03.587Z,69.53
2022-09-12T12:02:03.492Z,69.62
2022-09-12T12:03:03.444Z,70.73
2022-09-12T12:04:03.486Z,71.43
2022-09-12T12:05:03.437Z,71.33
2022-09-12T12:06:03.416Z,71.03
2022-09-12T12:07:03.414Z,71.43
2022-09-12T12:08:03.406Z,71.83
2022-09-12T12:09:03.383Z,72.53
2022-09-12T12:10:03.386Z,73.03
2022-09-12T12:11:03.363Z,73.03
2022-09-12T12:12:03.362Z,72.24
2022-09-12T12:13:03.367Z,71.43
2022-09-12T12:14:03.334Z,71.03
2022-09-12T12:15:03.327Z,71.63
2022-09-12T12:16:03.465Z,70.93
2022-09-12T12:17:03.469Z,71.03
2022-09-12T12:18:03.299Z,71.63
2022-09-12T12:19:06.382Z,68.52
2022-09-12T12:20:07.393Z,68.52
2022-09-12T12:21:03.266Z,68.72
2022-09-12T12:22:03.255Z,69.59
2022-09-12T12:23:03.249Z,66.88
2022-09-12T12:24:03.238Z,66.18
2022-09-12T12:25:03.245Z,66.95
2022-09-12T12:26:03.246Z,66.48
2022-09-12T12:27:03.209Z,66.78
2022-09-12T12:28:03.230Z,64.88
2022-09-12T12:29:03.190Z,65.58
2022-09-12T12:30:03.190Z,66.15
2022-09-12T12:31:03.291Z,67.08
2022-09-12T12:32:03.164Z,65.85
2022-09-12T12:33:03.294Z,64.84
2022-09-12T12:34:03.140Z,65.95
2022-09-12T12:35:03.127Z,67.15
2022-09-12T12:36:03.121Z,68.55
2022-09-12T12:37:07.210Z,68.76
2022-09-12T12:38:03.103Z,66.95
2022-09-12T12:39:03.091Z,66.85
2022-09-12T12:40:03.208Z,67.35
2022-09-12T12:41:03.073Z,66.25
2022-09-12T12:42:03.090Z,66.62
2022-09-12T12:43:03.074Z,66.32
2022-09-12T12:44:03.049Z,67.02
2022-09-12T12:45:03.071Z,66.35
2022-09-12T12:46:03.130Z,66.62
2022-09-12T12:47:03.014Z,68.92
2022-09-12T12:48:07.604Z,66.62
2022-09-12T12:49:03.002Z,65.12
2022-09-12T12:50:03.013Z,64.81
2022-09-12T12:51:02.975Z,64.81
2022-09-12T12:52:02.971Z,63.21
2022-09-12T12:53:02.958Z,61.38
2022-09-12T12:54:02.954Z,61.38
2022-09-12T12:55:02.945Z,60.08
2022-09-12T12:56:02.931Z,63.15
2022-09-12T12:57:02.925Z,63.42
2022-09-12T12:58:02.913Z,63.65
2022-09-12T12:59:02.904Z,63.92
2022-09-12T13:00:02.895Z,63.02
2022-09-12T13:01:02.893Z,63.82
2022-09-12T13:02:02.927Z,64.03
2022-09-12T13:03:02.914Z,65.75
2022-09-12T13:04:02.858Z,64.03
2022-09-12T13:05:02.852Z,64.65
2022-09-12T13:06:02.840Z,64.32
2022-09-12T13:07:07.754Z,64.12
2022-09-12T13:08:02.849Z,61.25
2022-09-12T13:09:02.813Z,63.25
2022-09-12T13:10:02.816Z,65.36
2022-09-12T13:11:02.807Z,65.86
2022-09-12T13:12:02.785Z,63.75
2022-09-12T13:13:02.843Z,61.85
2022-09-12T13:14:02.767Z,63.56
2022-09-12T13:15:02.782Z,64.45
2022-09-12T13:16:02.801Z,64.15
2022-09-12T13:17:02.738Z,61.85
2022-09-12T13:18:02.754Z,63.15
2022-09-12T13:19:02.720Z,60.95
2022-09-12T13:20:26.050Z,61.55
2022-09-12T13:21:02.705Z,61.32
2022-09-12T13:22:02.701Z,61.12
2022-09-12T13:23:02.743Z,62.82
2022-09-12T13:24:02.682Z,63.32
2022-09-12T13:25:02.678Z,61.92
2022-09-12T13:26:02.656Z,62.92
2022-09-12T13:27:02.663Z,63.42
2022-09-12T13:28:02.663Z,62.02
2022-09-12T13:29:02.653Z,62.39
2022-09-12T13:30:02.624Z,62.42
2022-09-12T13:31:02.651Z,62.92
2022-09-12T13:32:02.604Z,61.42
2022-09-12T13:33:02.599Z,63.22
2022-09-12T13:34:02.616Z,60.42
2022-09-12T13:35:02.578Z,60.22
2022-09-12T13:36:02.567Z,61.62
2022-09-12T13:37:02.559Z,62.82
2022-09-12T13:38:02.565Z,62.62
2022-09-12T13:39:02.569Z,62.82
2022-09-12T13:40:02.554Z,63.32
2022-09-12T13:41:02.520Z,63.72
2022-09-12T13:42:02.523Z,61.99
2022-09-12T13:43:02.505Z,61.89
2022-09-12T13:44:02.501Z,63.09
2022-09-12T13:45:02.631Z,59.79
2022-09-12T13:46:02.521Z,61.89
2022-09-12T13:47:02.475Z,61.96
2022-09-12T13:48:02.465Z,63.46
2022-09-12T13:49:02.452Z,63.69
2022-09-12T13:50:02.446Z,64.29
2022-09-12T13:51:02.447Z,64.99
2022-09-12T13:52:02.436Z,63.39
2022-09-12T13:53:02.420Z,61.16
2022-09-12T13:54:02.421Z,61.96
2022-09-12T13:55:02.434Z,61.04
2022-09-12T13:56:02.403Z,61.04
2022-09-12T13:57:02.387Z,61.63
2022-09-12T13:58:02.381Z,62.34
2022-09-12T13:59:02.386Z,63.63
2022-09-12T14:00:02.358Z,61.73
2022-09-12T14:01:02.373Z,62.76
2022-09-12T14:02:02.408Z,61.66
2022-09-12T14:03:02.346Z,61.96
2022-09-12T14:04:02.328Z,62.06
2022-09-12T14:05:02.323Z,61.26
2022-09-12T14:06:02.355Z,60.36
2022-09-12T14:07:02.304Z,61.76
2022-09-12T14:08:02.330Z,60.96
2022-09-12T14:09:02.283Z,62.16
2022-09-12T14:10:02.285Z,62.66
2022-09-12T14:11:02.265Z,62.26
2022-09-12T14:12:02.268Z,61.83
2022-09-12T14:13:02.287Z,62.56
2022-09-12T14:14:02.282Z,59.74
2022-09-12T14:15:02.298Z,59.94
2022-09-12T14:16:02.281Z,59.70
2022-09-12T14:17:02.221Z,59.70
2022-09-12T14:18:02.215Z,60.11
2022-09-12T14:19:02.211Z,59.58
2022-09-12T14:20:02.214Z,57.68
2022-09-12T14:21:02.189Z,58.58
2022-09-12T14:22:02.181Z,60.08
2022-09-12T14:23:02.172Z,59.78
2022-09-12T14:24:02.407Z,59.58
2022-09-12T14:25:02.164Z,60.15
2022-09-12T14:26:02.208Z,60.17
2022-09-12T14:27:02.160Z,59.65
2022-09-12T14:28:02.141Z,60.05
2022-09-12T14:29:02.176Z,61.44
2022-09-12T14:30:02.123Z,61.85
2022-09-12T14:31:02.183Z,60.75
2022-09-12T14:32:02.118Z,57.06
2022-09-12T14:33:02.142Z,58.25
2022-09-12T14:34:02.126Z,57.68
2022-09-12T14:35:02.086Z,59.85
2022-09-12T14:36:02.081Z,59.85
2022-09-12T14:37:02.074Z,59.85
2022-09-12T14:38:02.069Z,60.05
2022-09-12T14:39:02.086Z,59.35
2022-09-12T14:40:02.179Z,59.98
2022-09-12T14:41:02.081Z,60.50
2022-09-12T14:42:02.036Z,58.71
2022-09-12T14:43:02.058Z,59.53
2022-09-12T14:44:02.155Z,60.63
2022-09-12T14:45:02.011Z,60.53
2022-09-12T14:46:02.082Z,60.03
2022-09-12T14:47:02.042Z,59.91
2022-09-12T14:48:01.994Z,58.88
2022-09-12T14:49:01.999Z,59.88
2022-09-12T14:50:02.007Z,60.35
2022-09-12T14:51:01.996Z,59.85
2022-09-12T14:52:02.093Z,56.96
2022-09-12T14:53:01.981Z,59.75
2022-09-12T14:54:01.951Z,58.36
2022-09-12T14:55:01.940Z,58.95
2022-09-12T14:56:02.073Z,59.25
2022-09-12T14:57:01.927Z,59.98
2022-09-12T14:58:01.918Z,59.85
2022-09-12T14:59:02.009Z,57.53
2022-09-12T15:00:01.947Z,58.89
2022-09-12T15:01:01.948Z,57.23
2022-09-12T15:02:01.923Z,57.23
2022-09-12T15:03:01.907Z,56.73
2022-09-12T15:04:01.912Z,57.53
2022-09-12T15:05:01.879Z,57.73
2022-09-12T15:06:01.870Z,58.50
2022-09-12T15:07:01.885Z,56.23
2022-09-12T15:08:01.895Z,57.43
2022-09-12T15:09:02.034Z,58.23
2022-09-12T15:10:01.915Z,57.82
2022-09-12T15:11:01.837Z,57.80
2022-09-12T15:12:01.853Z,58.92
2022-09-12T15:13:01.828Z,59.32
2022-09-12T15:14:01.838Z,59.72
2022-09-12T15:15:01.798Z,59.52
2022-09-12T15:16:01.828Z,60.05
2022-09-12T15:17:01.782Z,60.45
2022-09-12T15:18:06.246Z,60.15
2022-09-12T15:19:01.771Z,59.85
2022-09-12T15:20:01.868Z,59.68
2022-09-12T15:21:01.760Z,60.05
2022-09-12T15:22:01.779Z,59.05
2022-09-12T15:23:01.767Z,58.85
2022-09-12T15:24:01.750Z,59.08
2022-09-12T15:25:01.728Z,58.75
2022-09-12T15:26:01.756Z,58.78
2022-09-12T15:27:01.714Z,59.88
2022-09-12T15:28:01.710Z,60.15
2022-09-12T15:29:01.699Z,59.25
2022-09-12T15:30:01.693Z,60.15
2022-09-12T15:31:01.760Z,61.08
2022-09-12T15:32:01.712Z,61.38
2022-09-12T15:33:01.680Z,61.57
2022-09-12T15:34:01.663Z,58.48
2022-09-12T15:35:01.661Z,61.00
2022-09-12T15:36:01.653Z,61.00
2022-09-12T15:37:01.670Z,62.20
2022-09-12T15:38:01.634Z,61.73
2022-09-12T15:39:01.630Z,61.24
2022-09-12T15:40:01.709Z,60.06
2022-09-12T15:41:01.612Z,60.86
2022-09-12T15:42:01.689Z,61.36
2022-09-12T15:43:01.629Z,60.36
2022-09-12T15:44:01.599Z,58.76
2022-09-12T15:45:02.722Z,59.77
2022-09-12T15:46:01.654Z,61.54
2022-09-12T15:47:01.687Z,61.33
2022-09-12T15:48:01.599Z,61.24
2022-09-12T15:49:01.554Z,61.04
2022-09-12T15:50:01.549Z,61.93
2022-09-12T15:51:01.536Z,61.54
2022-09-12T15:52:01.533Z,61.04
2022-09-12T15:53:01.541Z,63.43
2022-09-12T15:54:01.514Z,63.13
2022-09-12T15:55:01.506Z,63.83
2022-09-12T15:56:01.521Z,63.86
2022-09-12T15:57:01.491Z,64.06
2022-09-12T15:58:06.361Z,64.76
2022-09-12T15:59:01.471Z,64.86
2022-09-12T16:00:01.466Z,64.76
2022-09-12T16:01:01.597Z,64.29
2022-09-12T16:02:01.535Z,64.39
2022-09-12T16:03:01.533Z,64.46
2022-09-12T16:04:01.435Z,63.59
2022-09-12T16:05:01.428Z,63.69
2022-09-12T16:06:01.415Z,65.39
2022-09-12T16:07:01.411Z,65.89
2022-09-12T16:08:01.406Z,65.29
2022-09-12T16:09:01.394Z,65.89
2022-09-12T16:10:01.385Z,65.89
2022-09-12T16:11:01.381Z,65.29
2022-09-12T16:12:01.378Z,64.59
2022-09-12T16:13:01.359Z,64.99
2022-09-12T16:14:01.357Z,64.79
2022-09-12T16:15:01.344Z,65.12
2022-09-12T16:16:01.446Z,65.69
2022-09-12T16:17:01.328Z,65.22
2022-09-12T16:18:01.479Z,66.13
2022-09-12T16:19:01.313Z,66.32
2022-09-12T16:20:01.309Z,66.63
2022-09-12T16:21:01.294Z,66.36
2022-09-12T16:22:01.287Z,67.16
2022-09-12T16:23:01.276Z,67.25
2022-09-12T16:24:01.276Z,66.86
2022-09-12T16:25:01.264Z,67.16
2022-09-12T16:26:01.262Z,67.05
2022-09-12T16:27:01.564Z,66.75
2022-09-12T16:28:01.297Z,68.29
2022-09-12T16:29:01.231Z,68.39
2022-09-12T16:30:01.224Z,68.59
2022-09-12T16:31:01.253Z,68.32
2022-09-12T16:32:01.204Z,69.02
2022-09-12T16:33:01.198Z,68.22
2022-09-12T16:34:01.185Z,67.62
2022-09-12T16:35:01.179Z,69.42
2022-09-12T16:36:01.185Z,68.92
2022-09-12T16:37:01.162Z,69.56
2022-09-12T16:38:01.194Z,69.35
2022-09-12T16:39:01.152Z,69.35
2022-09-12T16:40:01.169Z,70.46
2022-09-12T16:41:01.126Z,70.79
2022-09-12T16:42:01.119Z,70.56
2022-09-12T16:43:01.183Z,68.85
2022-09-12T16:44:01.113Z,70.26
2022-09-12T16:45:01.095Z,70.66
2022-09-12T16:46:01.109Z,71.77
2022-09-12T16:47:01.074Z,73.16
2022-09-12T16:48:01.099Z,72.36
2022-09-12T16:49:01.083Z,70.59
2022-09-12T16:50:01.047Z,69.49
2022-09-12T16:51:01.038Z,70.56
2022-09-12T16:52:01.032Z,70.59
2022-09-12T16:53:01.021Z,70.79
2022-09-12T16:54:01.015Z,71.50
2022-09-12T16:55:01.004Z,71.59
2022-09-12T16:56:00.995Z,70.69
2022-09-12T16:57:01.016Z,70.50
2022-09-12T16:58:01.006Z,73.90
2022-09-12T16:59:01.002Z,71.50
2022-09-12T17:00:00.960Z,72.40
2022-09-12T17:01:00.961Z,73.10
2022-09-12T17:02:01.000Z,74.40
2022-09-12T17:03:00.999Z,74.44
2022-09-12T17:04:00.923Z,73.84
2022-09-12T17:05:00.947Z,73.33
2022-09-12T17:06:00.933Z,73.13
2022-09-12T17:07:00.899Z,73.54
2022-09-12T17:08:00.888Z,72.63
2022-09-12T17:09:00.880Z,72.33
2022-09-12T17:10:00.871Z,73.94
2022-09-12T17:11:00.889Z,73.03
2022-09-12T17:12:00.856Z,74.24
2022-09-12T17:13:00.848Z,73.33
2022-09-12T17:14:04.892Z,73.54
2022-09-12T17:15:00.898Z,72.94
2022-09-12T17:16:00.877Z,71.63
2022-09-12T17:17:00.813Z,72.33
2022-09-12T17:18:00.796Z,72.24
2022-09-12T17:19:00.803Z,72.97
2022-09-12T17:20:00.780Z,72.97
2022-09-12T17:21:00.776Z,73.44
2022-09-12T17:22:00.765Z,73.77
2022-09-12T17:23:00.757Z,74.57
2022-09-12T17:24:00.746Z,75.18
2022-09-12T17:25:00.736Z,75.38
2022-09-12T17:26:00.726Z,75.08
2022-09-12T17:27:00.744Z,74.01
2022-09-12T17:28:00.708Z,73.41
2022-09-12T17:29:00.700Z,73.10
2022-09-12T17:30:00.697Z,74.01
2022-09-12T17:31:00.734Z,74.31
2022-09-12T17:32:00.671Z,74.91
2022-09-12T17:33:00.693Z,73.61
2022-09-12T17:34:00.660Z,74.81
2022-09-12T17:35:00.661Z,75.25
2022-09-12T17:36:00.638Z,74.95
2022-09-12T17:37:00.658Z,73.84
2022-09-12T17:38:00.618Z,74.44
2022-09-12T17:39:00.655Z,74.44
2022-09-12T17:40:00.623Z,74.18
2022-09-12T17:41:00.637Z,75.65
2022-09-12T17:42:00.579Z,74.98
2022-09-12T17:43:00.575Z,74.98
2022-09-12T17:44:00.574Z,75.09
2022-09-12T17:45:00.558Z,75.38
2022-09-12T17:46:00.589Z,75.82
2022-09-12T17:47:00.540Z,75.52
2022-09-12T17:48:00.528Z,75.22
2022-09-12T17:49:00.535Z,76.32
2022-09-12T17:50:27.455Z,76.63
2022-09-12T17:51:00.497Z,76.63
2022-09-12T17:52:00.488Z,76.76
2022-09-12T17:53:00.482Z,76.73
2022-09-12T17:54:00.496Z,77.07
2022-09-12T17:55:00.463Z,76.87
2022-09-12T17:56:00.457Z,78.38
2022-09-12T17:57:00.440Z,77.77
2022-09-12T17:58:00.467Z,76.87
2022-09-12T17:59:00.429Z,77.27
2022-09-12T18:00:00.441Z,77.27
2022-09-12T18:01:00.410Z,76.76
2022-09-12T18:02:00.479Z,77.17
2022-09-12T18:03:00.468Z,76.97
2022-09-12T18:04:00.374Z,77.17
2022-09-12T18:05:00.396Z,77.07
2022-09-12T18:06:00.352Z,77.07
2022-09-12T18:07:00.420Z,77.27
2022-09-12T18:08:00.338Z,77.17
2022-09-12T18:09:00.492Z,76.97
2022-09-12T18:10:00.318Z,77.31
2022-09-12T18:11:00.327Z,77.91
2022-09-12T18:12:00.298Z,77.97
2022-09-12T18:13:00.289Z,78.51
2022-09-12T18:14:00.277Z,78.31
2022-09-12T18:15:00.282Z,78.61
2022-09-12T18:16:01.186Z,78.31
2022-09-12T18:17:00.287Z,78.51
2022-09-12T18:18:00.240Z,78.51
2022-09-12T18:19:00.314Z,78.41
2022-09-12T18:20:00.228Z,78.96
2022-09-12T18:21:00.213Z,79.16
2022-09-12T18:22:00.200Z,79.46
2022-09-12T18:23:00.218Z,80.57
2022-09-12T18:24:00.180Z,79.16
2022-09-12T18:25:00.204Z,79.66
2022-09-12T18:26:00.161Z,79.80
2022-09-12T18:27:00.154Z,79.76
2022-09-12T18:28:00.141Z,79.69
2022-09-12T18:29:00.134Z,79.49
2022-09-12T18:30:20.184Z,80.26
2022-09-12T18:31:00.161Z,79.16
2022-09-12T18:32:00.109Z,80.66
2022-09-12T18:33:00.099Z,81.21
2022-09-12T18:34:00.111Z,80.50
2022-09-12T18:35:00.220Z,80.40
2022-09-12T18:36:00.062Z,79.90
2022-09-12T18:37:00.063Z,79.80
2022-09-12T18:38:00.042Z,79.09
2022-09-12T18:39:00.033Z,79.80
2022-09-12T18:40:00.150Z,80.00
2022-09-12T18:41:00.076Z,80.20
2022-09-12T18:42:00.000Z,80.30
2022-09-12T18:42:59.994Z,80.10
2022-09-12T18:44:00.000Z,80.70
2022-09-12T18:45:00.003Z,80.40
2022-09-12T18:46:00.172Z,80.13
2022-09-12T18:46:59.964Z,80.10
2022-09-12T18:47:59.951Z,79.80
2022-09-12T18:48:59.932Z,80.20
2022-09-12T18:49:59.924Z,80.50
2022-09-12T18:50:59.917Z,79.83
2022-09-12T18:52:00.063Z,80.13
2022-09-12T18:53:00.125Z,79.53
2022-09-12T18:53:59.879Z,79.63
2022-09-12T18:54:59.887Z,80.13